createdAt,value
2023-03-02T00:00:11.470Z,100377.50
2023-03-02T00:03:00.320Z,100385.91
2023-03-02T00:05:50.295Z,100383.13
2023-03-02T00:08:39.632Z,100372.31
2023-03-02T00:11:28.832Z,100323.97
2023-03-02T00:14:17.408Z,100379.56
2023-03-02T00:17:07.973Z,100377.22
2023-03-02T00:20:09.904Z,100381.78
2023-03-02T00:22:59.916Z,100378.69
2023-03-02T00:25:48.443Z,100375.13
2023-03-02T00:28:36.951Z,100383.44
2023-03-02T00:31:25.488Z,100378.41
2023-03-02T00:34:14.049Z,100372.41
2023-03-02T00:37:02.544Z,100369.91
2023-03-02T00:39:54.039Z,100371.63
2023-03-02T00:42:42.540Z,100367.34
2023-03-02T00:45:31.252Z,100363.03
2023-03-02T00:48:19.834Z,100369.03
2023-03-02T00:51:08.642Z,100366.13
2023-03-02T00:53:57.396Z,100368.78
2023-03-02T00:56:47.240Z,100363.63
2023-03-02T00:59:38.235Z,100358.81
2023-03-02T01:02:26.814Z,100353.97
2023-03-02T01:05:15.678Z,100285.53
2023-03-02T01:08:04.284Z,100332.94
2023-03-02T01:10:54.300Z,100358.97
2023-03-02T01:13:44.408Z,100259.41
2023-03-02T01:16:34.625Z,100347.00
2023-03-02T01:19:23.394Z,100348.97
2023-03-02T01:22:11.889Z,100336.84
2023-03-02T01:25:00.588Z,100344.22
2023-03-02T01:27:49.144Z,100327.34
2023-03-02T01:30:39.019Z,100329.22
2023-03-02T01:33:27.508Z,100334.22
2023-03-02T01:36:16.029Z,100334.41
2023-03-02T01:39:04.773Z,100318.13
2023-03-02T01:41:54.002Z,100327.84
2023-03-02T01:44:44.909Z,100310.13
2023-03-02T01:47:37.530Z,100290.78
2023-03-02T01:50:27.759Z,100313.84
2023-03-02T01:53:17.215Z,100323.47
2023-03-02T01:56:06.909Z,100320.09
2023-03-02T01:59:01.936Z,100316.28
2023-03-02T02:01:52.980Z,100255.66
2023-03-02T02:04:43.983Z,100308.22
2023-03-02T02:07:32.454Z,100301.25
2023-03-02T02:10:21.101Z,100298.47
2023-03-02T02:13:11.065Z,100297.91
2023-03-02T02:15:59.626Z,100289.03
2023-03-02T02:18:48.216Z,100273.50
2023-03-02T02:21:38.027Z,100293.47
2023-03-02T02:24:31.445Z,100291.53
2023-03-02T02:27:21.295Z,100287.53
2023-03-02T02:30:12.724Z,100277.97
2023-03-02T02:33:01.870Z,100276.31
2023-03-02T02:35:50.417Z,100271.81
2023-03-02T02:38:39.426Z,100281.88
2023-03-02T02:41:30.895Z,100267.69
2023-03-02T02:44:20.824Z,100270.22
2023-03-02T02:47:16.624Z,100269.00
2023-03-02T02:50:05.923Z,100280.28
2023-03-02T02:52:56.765Z,100215.81
2023-03-02T02:55:46.544Z,100258.16
2023-03-02T02:58:37.162Z,100267.72
2023-03-02T03:01:27.443Z,100269.84
2023-03-02T03:04:19.882Z,100257.34
2023-03-02T03:07:08.721Z,100279.16
2023-03-02T03:10:00.678Z,100265.97
2023-03-02T03:12:49.451Z,100266.63
2023-03-02T03:15:37.992Z,100274.03
2023-03-02T03:18:27.870Z,100269.31
2023-03-02T03:21:18.314Z,100279.19
2023-03-02T03:24:07.580Z,100202.47
2023-03-02T03:26:56.583Z,100277.25
2023-03-02T03:29:48.179Z,100284.03
2023-03-02T03:32:37.111Z,100203.19
2023-03-02T03:35:27.075Z,100281.69
2023-03-02T03:38:15.687Z,100245.94
2023-03-02T03:41:04.262Z,100275.00
2023-03-02T03:43:53.316Z,100277.22
2023-03-02T03:46:41.739Z,100271.00
2023-03-02T03:49:30.306Z,100282.25
2023-03-02T03:52:30.535Z,100286.28
2023-03-02T03:55:19.548Z,100276.72
2023-03-02T03:58:08.341Z,100284.91
2023-03-02T04:00:57.145Z,100244.44
2023-03-02T04:03:45.852Z,100281.41
2023-03-02T04:06:34.823Z,100276.13
2023-03-02T04:09:25.644Z,100284.34
2023-03-02T04:12:14.375Z,100280.03
2023-03-02T04:15:03.011Z,100294.78
2023-03-02T04:17:51.944Z,100289.47
2023-03-02T04:20:40.501Z,100288.66
2023-03-02T04:23:29.004Z,100290.56
2023-03-02T04:26:18.871Z,100284.06
2023-03-02T04:29:07.712Z,100286.13
2023-03-02T04:31:56.228Z,100289.59
2023-03-02T04:34:44.820Z,100290.56
2023-03-02T04:37:33.369Z,100277.50
2023-03-02T04:40:22.081Z,100295.69
2023-03-02T04:43:11.933Z,100291.66
2023-03-02T04:46:00.737Z,100282.47
2023-03-02T04:48:49.206Z,100294.81
2023-03-02T04:51:40.319Z,100289.69
2023-03-02T04:54:28.887Z,100286.50
2023-03-02T04:57:17.424Z,100284.38
2023-03-02T05:00:10.307Z,100287.34
2023-03-02T05:02:58.941Z,100280.22
2023-03-02T05:05:47.450Z,100279.50
2023-03-02T05:08:35.977Z,100281.88
2023-03-02T05:11:24.567Z,100279.91
2023-03-02T05:14:14.001Z,100286.78
2023-03-02T05:17:03.920Z,100288.16
2023-03-02T05:19:52.532Z,100299.09
2023-03-02T05:22:41.094Z,100277.84
2023-03-02T05:25:31.554Z,100285.38
2023-03-02T05:28:20.484Z,100291.44
2023-03-02T05:31:09.190Z,100301.19
2023-03-02T05:33:59.255Z,100282.72
2023-03-02T05:36:47.826Z,100286.31
2023-03-02T05:39:36.578Z,100285.88
2023-03-02T05:42:25.283Z,100290.72
2023-03-02T05:45:19.325Z,100283.84
2023-03-02T05:48:09.349Z,100296.88
2023-03-02T05:50:59.649Z,100251.88
2023-03-02T05:53:48.228Z,100295.28
2023-03-02T05:56:36.759Z,100294.00
2023-03-02T05:59:25.203Z,100288.03
2023-03-02T06:02:13.800Z,100296.34
2023-03-02T06:05:02.402Z,100293.38
2023-03-02T06:07:52.349Z,100295.72
2023-03-02T06:10:40.853Z,100297.28
2023-03-02T06:13:29.386Z,100299.13
2023-03-02T06:16:17.945Z,100302.00
2023-03-02T06:19:06.542Z,100308.81
2023-03-02T06:21:55.209Z,100316.84
2023-03-02T06:24:45.107Z,100320.38
2023-03-02T06:27:33.527Z,100317.97
2023-03-02T06:30:24.412Z,100317.34
2023-03-02T06:33:12.979Z,100318.91
2023-03-02T06:36:01.832Z,100318.53
2023-03-02T06:38:50.690Z,100326.22
2023-03-02T06:41:40.617Z,100328.50
2023-03-02T06:44:29.197Z,100335.69
2023-03-02T06:47:17.842Z,100331.03
2023-03-02T06:50:07.952Z,100321.06
2023-03-02T06:52:56.976Z,100319.91
2023-03-02T06:55:45.526Z,100336.44
2023-03-02T06:58:35.340Z,100340.50
2023-03-02T07:01:23.919Z,100341.59
2023-03-02T07:04:12.809Z,100341.06
2023-03-02T07:07:01.334Z,100337.03
2023-03-02T07:09:49.878Z,100346.47
2023-03-02T07:12:38.402Z,100335.91
2023-03-02T07:15:28.233Z,100238.63
2023-03-02T07:18:16.934Z,100343.28
2023-03-02T07:21:06.104Z,100341.31
2023-03-02T07:23:54.573Z,100344.22
2023-03-02T07:26:43.047Z,100344.16
2023-03-02T07:29:31.502Z,100344.88
2023-03-02T07:32:21.456Z,100350.78
2023-03-02T07:35:10.973Z,100347.22
2023-03-02T07:37:59.487Z,100352.25
2023-03-02T07:40:48.284Z,100353.25
2023-03-02T07:43:36.976Z,100352.66
2023-03-02T07:46:25.544Z,100358.41
2023-03-02T07:49:15.415Z,100363.25
2023-03-02T07:52:06.363Z,100324.00
2023-03-02T07:54:54.842Z,100356.22
2023-03-02T07:57:43.311Z,100370.72
2023-03-02T08:00:31.822Z,100364.72
2023-03-02T08:03:20.265Z,100373.31
2023-03-02T08:06:12.339Z,100368.44
2023-03-02T08:09:02.896Z,100362.75
2023-03-02T08:11:51.453Z,100359.22
2023-03-02T08:14:40.266Z,100366.16
2023-03-02T08:17:28.887Z,100371.94
2023-03-02T08:20:17.517Z,100368.22
2023-03-02T08:23:08.339Z,100365.59
2023-03-02T08:25:56.974Z,100377.19
2023-03-02T08:28:45.949Z,100358.66
2023-03-02T08:31:35.132Z,100365.56
2023-03-02T08:34:23.880Z,100376.91
2023-03-02T08:37:12.418Z,100376.66
2023-03-02T08:40:02.377Z,100371.38
2023-03-02T08:42:56.943Z,100368.06
2023-03-02T08:45:45.537Z,100375.41
2023-03-02T08:48:34.252Z,100372.41
2023-03-02T08:51:24.304Z,100370.44
2023-03-02T08:54:13.503Z,100372.44
2023-03-02T08:57:03.498Z,100359.44
2023-03-02T08:59:52.681Z,100364.41
2023-03-02T09:02:41.511Z,100359.78
2023-03-02T09:05:30.050Z,100356.47
2023-03-02T09:08:18.590Z,100352.75
2023-03-02T09:11:07.615Z,100359.34
2023-03-02T09:13:57.500Z,100361.72
2023-03-02T09:16:46.979Z,100367.69
2023-03-02T09:19:44.177Z,100363.94
2023-03-02T09:22:35.825Z,100363.50
2023-03-02T09:25:24.743Z,100342.34
2023-03-02T09:28:13.229Z,100363.75
2023-03-02T09:31:04.440Z,100364.84
2023-03-02T09:33:52.920Z,100366.72
2023-03-02T09:36:41.672Z,100363.34
2023-03-02T09:39:30.292Z,100372.38
2023-03-02T09:42:43.524Z,100373.66
2023-03-02T09:45:40.721Z,100324.16
2023-03-02T09:48:36.583Z,100368.22
2023-03-02T09:51:32.636Z,100367.69
2023-03-02T09:54:25.415Z,100368.25
2023-03-02T09:57:24.327Z,100357.13
2023-03-02T10:00:20.008Z,100363.50
2023-03-02T10:03:17.449Z,100315.31
2023-03-02T10:06:07.859Z,100355.13
2023-03-02T10:08:56.819Z,100360.63
2023-03-02T10:11:56.089Z,100358.13
2023-03-02T10:14:50.487Z,100353.94
2023-03-02T10:17:48.071Z,100364.28
2023-03-02T10:20:40.534Z,100362.16
2023-03-02T10:23:40.406Z,100365.44
2023-03-02T10:26:39.477Z,100361.34
2023-03-02T10:29:40.793Z,100374.81
2023-03-02T10:32:32.861Z,100368.06
2023-03-02T10:35:23.930Z,100364.56
2023-03-02T10:38:14.522Z,100367.44
2023-03-02T10:41:08.562Z,100363.66
2023-03-02T10:43:59.391Z,100364.78
2023-03-02T10:46:48.417Z,100368.06
2023-03-02T10:49:39.295Z,100359.28
2023-03-02T10:52:29.249Z,100368.06
2023-03-02T10:55:18.446Z,100344.81
2023-03-02T10:58:22.693Z,100361.22
2023-03-02T11:01:18.391Z,100344.59
2023-03-02T11:04:15.460Z,100292.34
2023-03-02T11:07:09.149Z,100352.63
2023-03-02T11:10:02.755Z,100345.31
2023-03-02T11:12:53.098Z,100348.38
2023-03-02T11:15:46.746Z,100339.63
2023-03-02T11:18:38.746Z,100347.31
2023-03-02T11:21:32.324Z,100350.47
2023-03-02T11:24:25.496Z,100315.03
2023-03-02T11:27:20.039Z,100342.94
2023-03-02T11:30:15.820Z,100340.06
2023-03-02T11:33:10.887Z,100345.38
2023-03-02T11:36:05.550Z,100339.38
2023-03-02T11:38:56.225Z,100304.63
2023-03-02T11:41:44.814Z,100328.84
2023-03-02T11:44:33.338Z,100340.44
2023-03-02T11:47:22.238Z,100331.63
2023-03-02T11:50:14.013Z,100335.59
2023-03-02T11:53:06.366Z,100282.88
2023-03-02T11:55:54.940Z,100318.19
2023-03-02T11:58:44.217Z,100326.31
2023-03-02T12:01:35.254Z,100323.88
2023-03-02T12:04:29.417Z,100318.13
2023-03-02T12:07:23.297Z,100316.56
2023-03-02T12:10:28.463Z,100313.00
2023-03-02T12:13:19.937Z,100320.88
2023-03-02T12:16:21.086Z,100310.16
2023-03-02T12:19:14.654Z,100259.91
2023-03-02T12:22:05.702Z,100312.19
2023-03-02T12:25:03.849Z,100306.59
2023-03-02T12:27:53.901Z,100308.50
2023-03-02T12:30:42.421Z,100304.78
2023-03-02T12:33:30.928Z,100302.09
2023-03-02T12:36:21.936Z,100301.94
2023-03-02T12:39:25.410Z,100297.41
2023-03-02T12:42:35.699Z,100298.44
2023-03-02T12:45:41.091Z,100298.03
2023-03-02T12:48:32.672Z,100289.13
2023-03-02T12:51:23.176Z,100290.38
2023-03-02T12:54:15.723Z,100285.22
2023-03-02T12:57:08.686Z,100285.00
2023-03-02T13:00:00.863Z,100285.44
2023-03-02T13:02:50.911Z,100288.31
2023-03-02T13:05:39.450Z,100275.50
2023-03-02T13:08:29.613Z,100282.34
2023-03-02T13:11:22.797Z,100274.09
2023-03-02T13:14:20.317Z,100228.44
2023-03-02T13:17:23.670Z,100277.19
2023-03-02T13:20:15.257Z,100282.56
2023-03-02T13:23:04.629Z,100281.75
2023-03-02T13:25:54.494Z,100279.66
2023-03-02T13:28:43.052Z,100277.81
2023-03-02T13:31:32.811Z,100267.28
2023-03-02T13:34:25.313Z,100265.81
2023-03-02T13:37:21.651Z,100266.66
2023-03-02T13:40:32.093Z,100264.81
2023-03-02T13:43:31.584Z,100264.63
2023-03-02T13:46:33.003Z,100258.19
2023-03-02T13:49:31.007Z,100260.63
2023-03-02T13:52:29.225Z,100251.53
2023-03-02T13:55:18.984Z,100263.72
2023-03-02T13:58:11.229Z,100266.63
2023-03-02T14:00:59.801Z,100265.56
2023-03-02T14:03:48.446Z,100255.66
2023-03-02T14:06:38.429Z,100253.94
2023-03-02T14:09:27.722Z,100254.34
2023-03-02T14:12:23.407Z,100245.53
2023-03-02T14:15:15.103Z,100250.06
2023-03-02T14:18:03.675Z,100241.63
2023-03-02T14:20:52.218Z,100241.66
2023-03-02T14:23:42.384Z,100238.31
2023-03-02T14:26:33.551Z,100205.28
2023-03-02T14:29:24.790Z,100241.84
2023-03-02T14:32:15.003Z,100224.72
2023-03-02T14:35:03.648Z,100230.06
2023-03-02T14:37:52.269Z,100225.09
2023-03-02T14:40:42.146Z,100232.75
2023-03-02T14:43:30.829Z,100228.44
2023-03-02T14:46:19.470Z,100230.25
2023-03-02T14:49:07.958Z,100234.63
2023-03-02T14:51:59.981Z,100229.03
2023-03-02T14:54:51.246Z,100205.38
2023-03-02T14:57:41.417Z,100229.19
2023-03-02T15:00:30.030Z,100162.44
2023-03-02T15:03:22.687Z,100206.06
2023-03-02T15:06:25.077Z,100223.41
2023-03-02T15:09:13.704Z,100224.47
2023-03-02T15:12:02.291Z,100228.78
2023-03-02T15:14:52.375Z,100232.31
2023-03-02T15:17:40.990Z,100229.78
2023-03-02T15:20:30.317Z,100229.78
2023-03-02T15:23:18.844Z,100230.44
2023-03-02T15:26:07.454Z,100234.72
2023-03-02T15:28:56.094Z,100236.16
2023-03-02T15:31:46.158Z,100233.44
2023-03-02T15:34:34.693Z,100231.16
2023-03-02T15:37:23.150Z,100236.72
2023-03-02T15:40:13.247Z,100236.50
2023-03-02T15:43:02.052Z,100235.63
2023-03-02T15:45:50.690Z,100230.06
2023-03-02T15:48:40.561Z,100224.84
2023-03-02T15:51:29.128Z,100229.00
2023-03-02T15:54:17.606Z,100230.22
2023-03-02T15:57:06.263Z,100235.19
2023-03-02T15:59:54.790Z,100240.72
2023-03-02T16:02:43.406Z,100234.78
2023-03-02T16:05:33.273Z,100225.44
2023-03-02T16:08:21.844Z,100238.03
2023-03-02T16:11:18.676Z,100196.59
2023-03-02T16:14:07.313Z,100242.91
2023-03-02T16:16:55.905Z,100238.00
2023-03-02T16:19:44.505Z,100239.78
2023-03-02T16:22:34.368Z,100244.69
2023-03-02T16:25:22.830Z,100252.31
2023-03-02T16:28:12.256Z,100252.47
2023-03-02T16:31:04.425Z,100254.28
2023-03-02T16:33:53.400Z,100247.00
2023-03-02T16:36:42.762Z,100247.59
2023-03-02T16:39:33.485Z,100217.69
2023-03-02T16:42:21.959Z,100254.47
2023-03-02T16:45:11.359Z,100252.31
2023-03-02T16:47:59.878Z,100245.81
2023-03-02T16:50:55.672Z,100263.09
2023-03-02T16:53:44.579Z,100265.53
2023-03-02T16:56:34.570Z,100255.59
2023-03-02T16:59:23.159Z,100267.88
2023-03-02T17:02:12.702Z,100264.94
2023-03-02T17:05:01.193Z,100273.53
2023-03-02T17:07:50.101Z,100269.97
2023-03-02T17:10:39.306Z,100272.75
2023-03-02T17:13:29.332Z,100270.22
2023-03-02T17:16:19.190Z,100281.66
2023-03-02T17:19:07.661Z,100288.00
2023-03-02T17:21:57.740Z,100278.28
2023-03-02T17:24:46.217Z,100287.06
2023-03-02T17:27:34.738Z,100295.53
2023-03-02T17:30:24.808Z,100290.50
2023-03-02T17:33:13.425Z,100306.75
2023-03-02T17:36:04.485Z,100300.66
2023-03-02T17:38:52.994Z,100302.59
2023-03-02T17:41:42.208Z,100314.06
2023-03-02T17:44:32.983Z,100318.84
2023-03-02T17:47:22.856Z,100322.78
2023-03-02T17:50:12.476Z,100321.00
2023-03-02T17:53:02.080Z,100244.03
2023-03-02T17:55:50.616Z,100327.72
2023-03-02T17:58:45.073Z,100330.16
2023-03-02T18:01:34.523Z,100338.41
2023-03-02T18:04:24.428Z,100332.81
2023-03-02T18:07:13.452Z,100333.56
2023-03-02T18:10:01.969Z,100332.72
2023-03-02T18:12:52.334Z,100337.81
2023-03-02T18:15:42.835Z,100319.72
2023-03-02T18:18:31.417Z,100345.03
2023-03-02T18:21:21.357Z,100356.22
2023-03-02T18:24:10.423Z,100357.56
2023-03-02T18:26:58.915Z,100364.09
2023-03-02T18:29:47.518Z,100372.25
2023-03-02T18:32:36.191Z,100362.63
2023-03-02T18:35:25.081Z,100362.63
2023-03-02T18:38:14.995Z,100362.81
2023-03-02T18:41:06.170Z,100334.06
2023-03-02T18:43:54.769Z,100373.44
2023-03-02T18:46:43.407Z,100359.00
2023-03-02T18:49:31.914Z,100372.94
2023-03-02T18:52:20.903Z,100322.72
2023-03-02T18:55:13.540Z,100378.78
2023-03-02T18:58:02.058Z,100369.59
2023-03-02T19:00:50.794Z,100373.97
2023-03-02T19:03:41.796Z,100378.31
2023-03-02T19:06:30.547Z,100376.63
2023-03-02T19:09:19.177Z,100387.00
2023-03-02T19:12:09.127Z,100370.53
2023-03-02T19:15:01.155Z,100392.63
2023-03-02T19:17:51.704Z,100393.97
2023-03-02T19:20:40.285Z,100382.69
2023-03-02T19:23:28.872Z,100393.50
2023-03-02T19:26:17.403Z,100389.50
2023-03-02T19:29:07.214Z,100390.84
2023-03-02T19:31:57.618Z,100390.00
2023-03-02T19:34:46.232Z,100389.53
2023-03-02T19:37:34.740Z,100404.31
2023-03-02T19:40:26.790Z,100399.69
2023-03-02T19:43:16.277Z,100400.03
2023-03-02T19:46:06.367Z,100392.06
2023-03-02T19:48:55.081Z,100397.72
2023-03-02T19:51:43.668Z,100398.69
2023-03-02T19:54:32.170Z,100406.38
2023-03-02T19:57:21.127Z,100405.34
2023-03-02T20:00:14.145Z,100398.22
2023-03-02T20:03:05.990Z,100402.88
2023-03-02T20:05:55.554Z,100412.00
2023-03-02T20:08:44.702Z,100387.88
2023-03-02T20:11:33.312Z,100411.81
2023-03-02T20:14:33.524Z,100411.66
2023-03-02T20:17:22.693Z,100415.81
2023-03-02T20:20:13.292Z,100416.97
2023-03-02T20:23:01.825Z,100410.31
2023-03-02T20:25:50.563Z,100401.00
2023-03-02T20:28:39.378Z,100412.97
2023-03-02T20:31:28.356Z,100405.63
2023-03-02T20:34:16.962Z,100411.28
2023-03-02T20:37:07.396Z,100414.78
2023-03-02T20:39:56.435Z,100413.94
2023-03-02T20:42:45.075Z,100417.97
2023-03-02T20:45:33.997Z,100412.78
2023-03-02T20:48:22.488Z,100408.44
2023-03-02T20:51:11.015Z,100412.94
2023-03-02T20:54:00.897Z,100399.44
2023-03-02T20:56:49.503Z,100427.84
2023-03-02T20:59:38.579Z,100351.31
2023-03-02T21:02:27.104Z,100425.03
2023-03-02T21:05:15.995Z,100429.69
2023-03-02T21:08:05.285Z,100369.25
2023-03-02T21:10:55.432Z,100433.53
2023-03-02T21:13:45.840Z,100432.69
2023-03-02T21:16:36.735Z,100430.50
2023-03-02T21:19:25.524Z,100441.78
2023-03-02T21:22:14.075Z,100443.41
2023-03-02T21:25:02.611Z,100446.41
2023-03-02T21:27:52.553Z,100441.41
2023-03-02T21:30:41.502Z,100433.75
2023-03-02T21:33:29.988Z,100441.34
2023-03-02T21:36:19.958Z,100440.69
2023-03-02T21:39:10.417Z,100426.34
2023-03-02T21:41:59.127Z,100439.16
2023-03-02T21:44:48.998Z,100430.50
2023-03-02T21:47:39.480Z,100324.22
2023-03-02T21:50:30.107Z,100433.75
2023-03-02T21:53:19.040Z,100427.25
2023-03-02T21:56:08.941Z,100421.34
2023-03-02T21:58:58.030Z,100427.50
2023-03-02T22:01:47.930Z,100430.00
2023-03-02T22:04:36.698Z,100420.00
2023-03-02T22:07:25.264Z,100424.13
2023-03-02T22:10:24.210Z,100427.41
2023-03-02T22:13:18.393Z,100379.97
2023-03-02T22:16:14.222Z,100424.69
2023-03-02T22:19:17.549Z,100423.34
2023-03-02T22:22:16.038Z,100419.66
2023-03-02T22:25:15.116Z,100423.75
2023-03-02T22:28:06.635Z,100424.38
2023-03-02T22:30:59.925Z,100423.88
2023-03-02T22:33:48.885Z,100430.53
2023-03-02T22:36:38.693Z,100400.47
2023-03-02T22:39:30.272Z,100397.09
2023-03-02T22:42:20.284Z,100431.63
2023-03-02T22:45:15.629Z,100401.34
2023-03-02T22:48:07.928Z,100420.50
2023-03-02T22:50:56.473Z,100409.16
2023-03-02T22:53:50.067Z,100332.03
2023-03-02T22:56:42.307Z,100425.66
2023-03-02T22:59:37.516Z,100430.38
2023-03-02T23:02:26.616Z,100432.94
2023-03-02T23:05:24.327Z,100433.09
2023-03-02T23:08:19.585Z,100422.84
2023-03-02T23:11:16.581Z,100419.06
2023-03-02T23:14:12.787Z,100439.22
2023-03-02T23:17:03.075Z,100440.53
2023-03-02T23:19:52.251Z,100440.88
2023-03-02T23:22:40.835Z,100446.91
2023-03-02T23:25:29.318Z,100437.50
2023-03-02T23:28:19.127Z,100447.25
2023-03-02T23:31:08.228Z,100445.44
2023-03-02T23:33:56.742Z,100434.06
2023-03-02T23:36:45.289Z,100442.72
2023-03-02T23:39:33.749Z,100440.25
2023-03-02T23:42:22.204Z,100445.28
2023-03-02T23:45:12.513Z,100447.66
2023-03-02T23:48:00.954Z,100440.56
2023-03-02T23:50:49.420Z,100438.22
2023-03-02T23:53:37.991Z,100436.56
2023-03-02T23:56:26.553Z,100441.72
2023-03-02T23:59:15.424Z,100442.69
